Charleston, SC (29413)

6:41 PM EDT on August 31, 2016 (GMT -0400)
| | Change Station

Elev -9999 ft 0.00 °N, 0.00 °E | Updated

Mostly Cloudy
Mostly Cloudy
78 °F
Feels Like 78 °F
N
5
Wind Variable Wind from NE
Gusts mph

Today
High -- | Low -- °F
--% Chance of Precip.
Yesterday
High -- | Low -- °F
Precip. -- in
Pressure 29.88 in
Visibility 9.0 miles
Clouds Scattered Clouds 1900 ft
Scattered Clouds 2300 ft
Scattered Clouds 3000 ft
Dew Point 74 °F
Humidity 88%
Rainfall --
Snow Depth Not available.
6:54 AM 7:45 PM
Waning Crescent, 0% visible
METAR KJZI 312235Z AUTO 08008G13KT 9SM SCT019 SCT023 SCT030 28/24 A2988 RMK AO2
Pressure 29.88 in
Visibility 9.0 miles
Clouds Scattered Clouds 1900 ft
Scattered Clouds 2300 ft
Scattered Clouds 3000 ft
Dew Point 74 °F
Humidity 88%
Rainfall --
Snow Depth Not available.
6:54 AM 7:45 PM
Waning Crescent, 0% visible
METAR KJZI 312235Z AUTO 08008G13KT 9SM SCT019 SCT023 SCT030 28/24 A2988 RMK AO2
A tropical storm warning and hurricane watch is in effect for parts of the northern Florida Gulf Coast as Tropical Storm Hermine intensifies in the eastern Gulf of Mexico. A tropical storm watch is in effect for parts of the Atlantic coast of Georgia and Florida, as Hermine is expected to move near or just inland from the Southeast U.S. Coast on Friday and Friday night. Very heavy rains are possible near Hermine's path.

10-Day Weather Forecast

Almanac

Astronomy

Aug. 31, 2016 Rise Set
Actual Time
Civil Twilight
Nautical Twilight
Astronomical Twilight
Moon
Length of Visible Light
Length of Day
Tomorrow will be .
, % of the Moon is Illuminated

Today's Extremes

State Highs State Lows

Community

WunderPhotos

Upload Photos

1,936,204 photos uploaded!

WunderBlog® & News

Nearby

Air Quality

  Air Quality AQ Index Pollutant
Not available.

Snow Depth

Station Depth Elevation

Earthquake Activity

City Distance Mag. Time & Date
Minimum magnitude displayed is 2.5.

Coastal Water Temperatures

Place Temperature

Stations

Nearby Weather Stations

Station Location Temp. Windchill Dew Point Humidity Wind Precip. Elev Updated Type
                   

Watches & Warnings

There are currently no watches in effect.